createdAt,value
2019-05-20T00:01:17.093Z,24.93
2019-05-20T00:03:43.106Z,26.03
2019-05-20T00:06:09.681Z,23.73
2019-05-20T00:08:35.876Z,25.90
2019-05-20T00:11:01.977Z,24.47
2019-05-20T00:13:27.956Z,24.70
2019-05-20T00:15:54.125Z,22.90
2019-05-20T00:18:20.102Z,23.00
2019-05-20T00:20:46.091Z,23.27
2019-05-20T00:23:12.115Z,23.70
2019-05-20T00:25:38.208Z,22.67
2019-05-20T00:28:04.339Z,21.70
2019-05-20T00:30:30.403Z,22.10
2019-05-20T00:32:56.445Z,22.57
2019-05-20T00:35:22.424Z,20.07
2019-05-20T00:37:48.464Z,19.10
2019-05-20T00:40:15.060Z,17.93
2019-05-20T00:42:41.026Z,20.13
2019-05-20T00:45:07.933Z,21.20
2019-05-20T00:47:33.914Z,22.03
2019-05-20T00:49:59.915Z,19.13
2019-05-20T00:52:25.956Z,19.70
2019-05-20T00:54:51.998Z,21.53
2019-05-20T00:57:18.047Z,20.60
2019-05-20T00:59:44.101Z,22.50
2019-05-20T01:02:10.210Z,21.47
2019-05-20T01:04:36.421Z,21.00
2019-05-20T01:07:02.684Z,20.50
2019-05-20T01:09:28.697Z,18.63
2019-05-20T01:11:54.686Z,21.43
2019-05-20T01:14:20.843Z,21.17
2019-05-20T01:16:46.832Z,20.67
2019-05-20T01:19:12.820Z,21.03
2019-05-20T01:21:38.841Z,22.50
2019-05-20T01:24:04.821Z,22.87
2019-05-20T01:26:30.844Z,23.57
2019-05-20T01:28:56.868Z,23.17
2019-05-20T01:31:22.855Z,21.50
2019-05-20T01:33:49.140Z,22.13
2019-05-20T01:36:15.388Z,21.30
2019-05-20T01:38:41.480Z,20.77
2019-05-20T01:41:07.566Z,22.63
2019-05-20T01:43:33.646Z,22.70
2019-05-20T01:45:59.811Z,22.33
2019-05-20T01:48:25.878Z,22.20
2019-05-20T01:50:52.020Z,22.63
2019-05-20T01:53:18.124Z,21.23
2019-05-20T01:55:44.164Z,20.27
2019-05-20T01:58:10.337Z,21.70
2019-05-20T02:00:36.353Z,20.63
2019-05-20T02:03:02.332Z,20.30
2019-05-20T02:05:28.314Z,20.90
2019-05-20T02:07:54.415Z,21.40
2019-05-20T02:10:20.596Z,23.17
2019-05-20T02:12:46.624Z,21.67
2019-05-20T02:15:31.491Z,20.27
2019-05-20T02:17:57.529Z,21.80
2019-05-20T02:20:23.558Z,22.40
2019-05-20T02:22:49.618Z,22.27
2019-05-20T02:25:16.548Z,20.30
2019-05-20T02:27:42.527Z,20.70
2019-05-20T02:30:09.127Z,19.33
2019-05-20T02:32:35.236Z,22.60
2019-05-20T02:35:01.727Z,21.07
2019-05-20T02:37:27.815Z,21.43
2019-05-20T02:39:53.804Z,21.47
2019-05-20T02:42:19.847Z,21.73
2019-05-20T02:44:45.879Z,21.13
2019-05-20T02:47:11.910Z,19.50
2019-05-20T02:49:37.941Z,20.03
2019-05-20T02:52:03.935Z,21.07
2019-05-20T02:54:29.920Z,19.87
2019-05-20T02:56:55.916Z,21.23
2019-05-20T02:59:21.924Z,22.27
2019-05-20T03:01:47.958Z,20.87
2019-05-20T03:04:14.080Z,19.97
2019-05-20T03:06:40.115Z,20.90
2019-05-20T03:09:06.158Z,19.20
2019-05-20T03:11:32.226Z,19.07
2019-05-20T03:13:58.362Z,20.53
2019-05-20T03:16:24.334Z,21.90
2019-05-20T03:18:50.352Z,20.90
2019-05-20T03:21:16.450Z,20.87
2019-05-20T03:23:42.469Z,21.13
2019-05-20T03:26:08.463Z,21.30
2019-05-20T03:28:34.490Z,20.73
2019-05-20T03:31:00.732Z,20.13
2019-05-20T03:33:26.985Z,21.50
2019-05-20T03:35:52.999Z,19.40
2019-05-20T03:38:18.983Z,19.77
2019-05-20T03:40:45.217Z,20.23
2019-05-20T03:43:11.189Z,18.90
2019-05-20T03:45:37.188Z,17.57
2019-05-20T03:48:03.342Z,17.80
2019-05-20T03:50:29.465Z,17.03
2019-05-20T03:52:55.960Z,17.33
2019-05-20T03:55:21.939Z,18.03
2019-05-20T03:57:47.978Z,15.83
2019-05-20T04:00:13.971Z,16.70
2019-05-20T04:02:39.994Z,16.90
2019-05-20T04:05:06.310Z,17.00
2019-05-20T04:07:32.630Z,13.83
2019-05-20T04:09:58.656Z,16.23
2019-05-20T04:12:24.673Z,15.20
2019-05-20T04:14:50.689Z,15.33
2019-05-20T04:17:16.710Z,14.13
2019-05-20T04:19:42.702Z,13.47
2019-05-20T04:22:08.803Z,11.90
2019-05-20T04:24:35.050Z,12.30
2019-05-20T04:27:01.249Z,14.20
2019-05-20T04:29:27.574Z,11.63
2019-05-20T04:31:53.916Z,12.10
2019-05-20T04:34:19.946Z,13.80
2019-05-20T04:36:46.162Z,15.37
2019-05-20T04:39:12.243Z,16.30
2019-05-20T04:41:38.221Z,15.20
2019-05-20T04:44:04.222Z,15.50
2019-05-20T04:46:30.225Z,19.17
2019-05-20T04:48:56.246Z,23.20
2019-05-20T04:51:22.265Z,20.93
2019-05-20T04:53:48.241Z,20.30
2019-05-20T04:56:14.270Z,21.23
2019-05-20T04:58:40.295Z,18.50
2019-05-20T05:01:06.321Z,18.60
2019-05-20T05:03:32.584Z,17.00
2019-05-20T05:05:58.756Z,17.27
2019-05-20T05:08:25.004Z,16.70
2019-05-20T05:10:51.390Z,16.30
2019-05-20T05:13:17.620Z,17.23
2019-05-20T05:15:44.200Z,19.50
2019-05-20T05:18:10.485Z,18.37
2019-05-20T05:20:36.665Z,20.23
2019-05-20T05:23:02.838Z,19.90
2019-05-20T05:25:29.123Z,21.80
2019-05-20T05:27:55.305Z,25.30
2019-05-20T05:30:21.679Z,21.97
2019-05-20T05:32:47.649Z,21.20
2019-05-20T05:35:15.052Z,19.17
2019-05-20T05:37:41.611Z,15.87
2019-05-20T05:40:08.428Z,14.40
2019-05-20T05:42:34.616Z,15.10
2019-05-20T05:45:00.739Z,14.60
2019-05-20T05:47:26.784Z,13.43
2019-05-20T05:49:52.806Z,13.60
2019-05-20T05:52:18.790Z,14.07
2019-05-20T05:54:45.065Z,13.20
2019-05-20T05:57:11.188Z,12.07
2019-05-20T05:59:37.198Z,13.80
2019-05-20T06:02:03.221Z,13.83
2019-05-20T06:04:29.271Z,13.47
2019-05-20T06:06:55.271Z,11.67
2019-05-20T06:09:21.380Z,14.90
2019-05-20T06:11:47.432Z,12.60
2019-05-20T06:14:13.458Z,11.93
2019-05-20T06:16:39.504Z,12.63
2019-05-20T06:19:05.595Z,12.43
2019-05-20T06:21:31.659Z,11.57
2019-05-20T06:23:57.691Z,10.60
2019-05-20T06:26:23.776Z,11.50
2019-05-20T06:28:49.777Z,10.73
2019-05-20T06:31:15.965Z,10.13
2019-05-20T06:33:42.148Z,11.47
2019-05-20T06:36:08.198Z,10.50
2019-05-20T06:38:36.513Z,10.90
2019-05-20T06:41:03.325Z,10.20
2019-05-20T06:43:29.313Z,12.33
2019-05-20T06:45:55.349Z,10.97
2019-05-20T06:48:21.412Z,12.13
2019-05-20T06:50:47.445Z,10.63
2019-05-20T06:53:13.464Z,9.63
2019-05-20T06:55:39.482Z,10.60
2019-05-20T06:58:05.494Z,10.23
2019-05-20T07:00:36.202Z,9.70
2019-05-20T07:03:03.188Z,10.97
2019-05-20T07:05:29.317Z,9.73
2019-05-20T07:07:55.424Z,9.67
2019-05-20T07:10:21.406Z,9.13
2019-05-20T07:12:47.498Z,10.23
2019-05-20T07:15:13.490Z,11.03
2019-05-20T07:17:39.612Z,9.47
2019-05-20T07:20:05.888Z,9.50
2019-05-20T07:22:31.879Z,10.87
2019-05-20T07:24:57.911Z,10.43
2019-05-20T07:27:23.889Z,11.17
2019-05-20T07:29:49.909Z,10.50
2019-05-20T07:32:15.909Z,11.90
2019-05-20T07:34:42.237Z,10.90
2019-05-20T07:37:08.383Z,11.47
2019-05-20T07:39:34.369Z,11.03
2019-05-20T07:42:00.662Z,10.90
2019-05-20T07:44:26.713Z,11.03
2019-05-20T07:46:53.051Z,11.30
2019-05-20T07:49:20.975Z,10.97
2019-05-20T07:51:47.545Z,11.60
2019-05-20T07:54:14.074Z,11.80
2019-05-20T07:56:43.096Z,11.40
2019-05-20T07:59:12.990Z,13.60
2019-05-20T08:01:39.109Z,12.30
2019-05-20T08:04:05.162Z,12.10
2019-05-20T08:09:10.189Z,12.20
2019-05-20T08:46:56.123Z,14.83
2019-05-20T09:18:06.345Z,16.97
2019-05-20T09:48:04.093Z,14.47
2019-05-20T09:50:30.195Z,15.07
2019-05-20T09:52:56.295Z,15.07
2019-05-20T09:55:22.468Z,12.67
2019-05-20T09:57:48.596Z,12.23
2019-05-20T10:00:15.461Z,12.17
2019-05-20T10:02:41.564Z,11.77
2019-05-20T10:05:07.880Z,14.17
2019-05-20T10:07:33.957Z,15.17
2019-05-20T10:10:00.085Z,13.37
2019-05-20T10:12:44.671Z,12.50
2019-05-20T10:14:54.120Z,10.53
2019-05-20T10:17:20.246Z,9.83
2019-05-20T10:19:46.500Z,9.77
2019-05-20T10:22:12.627Z,9.27
2019-05-20T10:24:38.642Z,9.20
2019-05-20T10:27:04.680Z,9.50
2019-05-20T10:29:30.696Z,9.10
2019-05-20T10:31:56.840Z,8.77
2019-05-20T10:34:22.971Z,8.30
2019-05-20T10:36:48.953Z,8.83
2019-05-20T10:39:14.985Z,7.93
2019-05-20T10:41:41.118Z,8.10
2019-05-20T10:44:07.197Z,8.57
2019-05-20T10:46:33.288Z,9.07
2019-05-20T10:48:59.392Z,8.37
2019-05-20T10:51:25.553Z,8.90
2019-05-20T10:53:51.573Z,8.80
2019-05-20T10:56:17.597Z,8.63
2019-05-20T10:58:43.653Z,9.70
2019-05-20T11:01:09.966Z,10.40
2019-05-20T11:03:35.996Z,7.67
2019-05-20T11:06:01.991Z,8.73
2019-05-20T11:08:28.043Z,7.30
2019-05-20T11:10:54.103Z,8.10
2019-05-20T11:13:20.406Z,8.97
2019-05-20T11:15:46.553Z,8.13
2019-05-20T11:18:12.631Z,8.67
2019-05-20T11:20:38.643Z,8.17
2019-05-20T11:23:04.699Z,7.90
2019-05-20T11:25:30.778Z,8.37
2019-05-20T11:27:56.785Z,7.30
2019-05-20T11:30:22.982Z,7.90
2019-05-20T11:32:48.970Z,9.40
2019-05-20T11:35:15.340Z,7.33
2019-05-20T11:37:41.529Z,8.70
2019-05-20T11:40:09.117Z,7.27
2019-05-20T11:42:35.594Z,8.23
2019-05-20T11:45:02.295Z,8.27
2019-05-20T11:47:28.432Z,7.70
2019-05-20T11:49:54.442Z,8.60
2019-05-20T11:52:22.029Z,7.63
2019-05-20T11:54:48.441Z,8.70
2019-05-20T11:57:14.501Z,8.73
2019-05-20T11:59:40.549Z,9.33
2019-05-20T12:02:06.544Z,9.50
2019-05-20T12:04:32.548Z,8.97
2019-05-20T12:06:58.573Z,8.60
2019-05-20T12:09:24.579Z,9.00
2019-05-20T12:11:50.614Z,10.17
2019-05-20T12:14:16.641Z,9.00
2019-05-20T12:16:42.650Z,8.20
2019-05-20T12:19:08.679Z,9.50
2019-05-20T12:21:34.700Z,8.50
2019-05-20T12:24:00.746Z,9.27
2019-05-20T12:26:26.775Z,9.57
2019-05-20T12:28:52.772Z,9.90
2019-05-20T12:31:19.001Z,9.53
2019-05-20T12:33:45.027Z,9.40
2019-05-20T12:36:11.182Z,10.83
2019-05-20T12:38:37.334Z,10.10
2019-05-20T12:41:03.403Z,9.27
2019-05-20T12:43:29.818Z,8.37
2019-05-20T12:45:55.806Z,7.67
2019-05-20T12:48:21.898Z,8.87
2019-05-20T12:50:47.964Z,7.77
2019-05-20T12:53:13.977Z,10.57
2019-05-20T12:55:40.066Z,8.70
2019-05-20T12:58:06.061Z,9.40
2019-05-20T13:00:32.124Z,8.50
2019-05-20T13:02:58.194Z,8.43
2019-05-20T13:05:24.237Z,8.70
2019-05-20T13:07:50.285Z,9.13
2019-05-20T13:10:29.053Z,8.60
2019-05-20T13:12:44.497Z,7.80
2019-05-20T13:15:12.642Z,8.97
2019-05-20T13:17:43.761Z,8.80
2019-05-20T13:20:07.503Z,9.20
2019-05-20T13:22:33.548Z,9.30
2019-05-20T13:24:59.600Z,9.47
2019-05-20T13:27:25.757Z,10.40
2019-05-20T13:29:52.833Z,9.00
2019-05-20T13:32:19.213Z,10.03
2019-05-20T13:34:45.248Z,10.10
2019-05-20T13:37:11.260Z,10.23
2019-05-20T13:39:39.163Z,8.90
2019-05-20T13:42:05.286Z,10.27
2019-05-20T13:44:31.377Z,9.90
2019-05-20T13:46:57.727Z,9.60
2019-05-20T13:49:23.903Z,11.33
2019-05-20T13:51:49.985Z,9.20
2019-05-20T13:54:16.015Z,9.60
2019-05-20T13:56:42.520Z,9.73
2019-05-20T13:59:08.527Z,9.40
2019-05-20T14:01:34.553Z,9.63
2019-05-20T14:04:00.580Z,9.37
2019-05-20T14:06:26.799Z,10.13
2019-05-20T14:08:52.888Z,10.10
2019-05-20T14:11:32.526Z,10.37
2019-05-20T14:13:47.239Z,9.73
2019-05-20T14:16:13.261Z,10.33
2019-05-20T14:18:39.265Z,11.00
2019-05-20T14:21:05.308Z,9.93
2019-05-20T14:23:31.444Z,10.43
2019-05-20T14:25:58.223Z,11.90
2019-05-20T14:28:24.733Z,11.07
2019-05-20T14:30:50.968Z,10.37
2019-05-20T14:33:17.376Z,11.27
2019-05-20T14:35:43.517Z,10.90
2019-05-20T14:38:10.141Z,11.50
2019-05-20T14:40:36.209Z,10.40
2019-05-20T14:43:02.217Z,16.10
2019-05-20T14:45:28.269Z,16.67
2019-05-20T14:47:54.520Z,16.00
2019-05-20T14:50:20.645Z,17.43
2019-05-20T14:52:46.837Z,18.03
2019-05-20T14:55:13.037Z,17.47
2019-05-20T14:57:39.064Z,16.70
2019-05-20T15:00:07.228Z,16.40
2019-05-20T15:02:33.455Z,15.53
2019-05-20T15:04:59.617Z,16.73
2019-05-20T15:07:29.824Z,16.50
2019-05-20T15:09:53.772Z,23.97
2019-05-20T15:12:19.964Z,22.27
2019-05-20T15:14:46.156Z,22.43
2019-05-20T15:17:12.358Z,37.97
2019-05-20T15:19:38.413Z,33.63
2019-05-20T15:22:04.460Z,35.47
2019-05-20T15:24:30.562Z,41.40
2019-05-20T15:26:56.738Z,39.33
2019-05-20T15:29:27.949Z,48.27
2019-05-20T15:31:50.786Z,39.73
2019-05-20T15:34:16.926Z,50.53
2019-05-20T15:36:43.096Z,16.97
2019-05-20T15:39:09.246Z,17.23
2019-05-20T15:41:35.293Z,20.23
2019-05-20T15:44:01.557Z,15.87
2019-05-20T15:46:27.578Z,14.13
2019-05-20T15:48:53.771Z,13.80
2019-05-20T15:51:19.894Z,12.70
2019-05-20T15:53:46.229Z,11.03
2019-05-20T15:56:12.359Z,12.80
2019-05-20T15:58:38.450Z,11.57
2019-05-20T16:01:04.639Z,11.77
2019-05-20T16:03:30.759Z,12.37
2019-05-20T16:05:59.837Z,12.07
2019-05-20T16:08:24.873Z,18.50
2019-05-20T16:10:51.277Z,32.07
2019-05-20T16:13:17.379Z,19.77
2019-05-20T16:15:43.417Z,22.40
2019-05-20T16:18:09.546Z,25.77
2019-05-20T16:20:35.677Z,22.27
2019-05-20T16:23:01.703Z,24.50
2019-05-20T16:25:27.700Z,26.57
2019-05-20T16:27:53.773Z,18.20
2019-05-20T16:30:19.979Z,43.23
2019-05-20T16:32:46.106Z,13.40
2019-05-20T16:35:12.312Z,20.30
2019-05-20T16:37:38.317Z,17.90
2019-05-20T16:40:06.306Z,15.47
2019-05-20T16:42:32.342Z,12.37
2019-05-20T16:44:58.540Z,11.60
2019-05-20T16:47:24.701Z,12.07
2019-05-20T16:49:51.104Z,11.80
2019-05-20T16:52:17.230Z,13.67
2019-05-20T16:54:43.275Z,12.57
2019-05-20T16:57:11.467Z,11.50
2019-05-20T16:59:37.586Z,12.43
2019-05-20T17:02:04.062Z,19.93
2019-05-20T17:04:30.058Z,22.40
2019-05-20T17:06:56.196Z,26.77
2019-05-20T17:09:23.466Z,32.80
2019-05-20T17:11:49.869Z,20.10
2019-05-20T17:14:15.887Z,25.93
2019-05-20T17:16:42.154Z,47.37
2019-05-20T17:19:08.339Z,25.47
2019-05-20T17:21:34.383Z,32.87
2019-05-20T17:24:00.803Z,18.50
2019-05-20T17:26:26.942Z,17.67
2019-05-20T17:28:52.943Z,18.03
2019-05-20T17:31:19.041Z,15.90
2019-05-20T17:33:45.068Z,16.50
2019-05-20T17:36:11.053Z,14.70
2019-05-20T17:38:37.140Z,14.10
2019-05-20T17:41:03.276Z,16.27
2019-05-20T17:43:29.372Z,14.73
2019-05-20T17:45:55.417Z,15.60
2019-05-20T17:48:21.631Z,19.50
2019-05-20T17:50:47.681Z,20.03
2019-05-20T17:53:13.676Z,21.67
2019-05-20T17:55:39.839Z,24.63
2019-05-20T17:58:05.932Z,22.97
2019-05-20T18:00:32.002Z,23.50
2019-05-20T18:02:58.039Z,26.93
2019-05-20T18:05:24.154Z,27.17
2019-05-20T18:07:50.173Z,27.80
2019-05-20T18:10:18.812Z,28.40
2019-05-20T18:12:45.256Z,27.77
2019-05-20T18:15:11.901Z,29.67
2019-05-20T18:17:37.924Z,30.40
2019-05-20T18:20:04.724Z,30.83
2019-05-20T18:22:30.754Z,31.00
2019-05-20T18:24:56.921Z,30.80
2019-05-20T18:27:22.905Z,29.30
2019-05-20T18:29:48.952Z,29.10
2019-05-20T18:32:15.296Z,28.33
2019-05-20T18:34:41.323Z,30.90
2019-05-20T18:37:07.360Z,120.47
2019-05-20T18:39:34.147Z,74.67
2019-05-20T18:42:00.841Z,41.97
2019-05-20T18:44:27.184Z,42.40
2019-05-20T18:46:53.214Z,37.07
2019-05-20T18:49:19.720Z,70.43
2019-05-20T18:51:46.699Z,52.27
2019-05-20T18:54:12.747Z,69.13
2019-05-20T18:56:39.294Z,41.73
2019-05-20T18:59:05.614Z,42.13
2019-05-20T19:01:44.733Z,38.90
2019-05-20T19:04:00.250Z,31.23
2019-05-20T19:06:26.833Z,29.97
2019-05-20T19:08:53.261Z,31.53
2019-05-20T19:11:19.296Z,29.90
2019-05-20T19:13:46.961Z,29.10
2019-05-20T19:16:13.027Z,31.43
2019-05-20T19:18:39.119Z,29.57
2019-05-20T19:21:05.521Z,30.47
2019-05-20T19:23:31.915Z,28.57
2019-05-20T19:25:59.513Z,29.37
2019-05-20T19:28:25.549Z,28.40
2019-05-20T19:30:51.957Z,28.37
2019-05-20T19:33:18.451Z,27.83
2019-05-20T19:35:44.619Z,29.37
2019-05-20T19:38:10.686Z,29.90
2019-05-20T19:40:36.736Z,28.97
2019-05-20T19:43:03.179Z,29.80
2019-05-20T19:45:29.177Z,30.17
2019-05-20T19:47:55.415Z,27.20
2019-05-20T19:50:21.548Z,27.97
2019-05-20T19:52:47.970Z,29.60
2019-05-20T19:55:14.212Z,28.10
2019-05-20T19:57:40.728Z,28.20
2019-05-20T20:00:07.959Z,27.73
2019-05-20T20:02:33.958Z,27.93
2019-05-20T20:05:00.023Z,24.93
2019-05-20T20:07:28.697Z,25.50
2019-05-20T20:09:54.080Z,26.00
2019-05-20T20:12:20.307Z,26.10
2019-05-20T20:14:46.882Z,24.30
2019-05-20T20:17:12.927Z,23.07
2019-05-20T20:19:39.005Z,24.43
2019-05-20T20:22:04.994Z,23.93
2019-05-20T20:24:31.437Z,24.30
2019-05-20T20:26:57.562Z,26.57
2019-05-20T20:29:23.829Z,25.13
2019-05-20T20:31:49.878Z,24.50
2019-05-20T20:34:16.179Z,24.70
2019-05-20T20:36:42.194Z,25.20
2019-05-20T20:39:09.417Z,25.30
2019-05-20T20:41:37.342Z,25.13
2019-05-20T20:44:03.500Z,25.37
2019-05-20T20:46:29.599Z,24.30
2019-05-20T20:48:55.693Z,24.63
2019-05-20T20:51:21.710Z,23.70
2019-05-20T20:53:47.800Z,27.60
2019-05-20T20:56:24.870Z,30.50
2019-05-20T20:58:41.930Z,31.73
2019-05-20T21:01:07.988Z,31.13
2019-05-20T21:03:34.045Z,28.67
2019-05-20T21:06:00.242Z,30.30
2019-05-20T21:08:26.414Z,29.03
2019-05-20T21:10:52.469Z,28.20
2019-05-20T21:13:18.467Z,25.10
2019-05-20T21:15:44.647Z,28.53
2019-05-20T21:18:10.645Z,27.10
2019-05-20T21:20:36.663Z,24.50
2019-05-20T21:23:02.693Z,25.33
2019-05-20T21:25:28.732Z,26.43
2019-05-20T21:27:54.760Z,25.90
2019-05-20T21:30:20.764Z,23.63
2019-05-20T21:32:46.831Z,23.50
2019-05-20T21:35:12.892Z,24.40
2019-05-20T21:37:38.871Z,24.20
2019-05-20T21:40:05.180Z,24.33
2019-05-20T21:42:31.197Z,24.13
2019-05-20T21:44:57.235Z,35.10
2019-05-20T21:47:23.247Z,24.33
2019-05-20T21:49:49.237Z,22.80
2019-05-20T21:52:15.287Z,23.83
2019-05-20T21:54:41.379Z,22.30
2019-05-20T21:57:07.410Z,25.10
2019-05-20T21:59:33.392Z,22.73
2019-05-20T22:01:59.555Z,23.20
2019-05-20T22:04:25.654Z,24.47
2019-05-20T22:06:51.838Z,23.43
2019-05-20T22:09:17.865Z,22.87
2019-05-20T22:11:43.894Z,22.87
2019-05-20T22:14:09.919Z,22.17
2019-05-20T22:16:36.325Z,24.10
2019-05-20T22:19:02.684Z,23.30
2019-05-20T22:21:30.568Z,22.67
2019-05-20T22:24:01.371Z,21.93
2019-05-20T22:26:27.422Z,22.20
2019-05-20T22:28:53.398Z,22.80
2019-05-20T22:31:37.832Z,22.40
2019-05-20T22:34:03.880Z,23.23
2019-05-20T22:36:30.579Z,23.30
2019-05-20T22:38:56.573Z,23.43
2019-05-20T22:41:22.631Z,23.63
2019-05-20T22:43:48.642Z,23.27
2019-05-20T22:46:14.761Z,23.27
2019-05-20T22:48:40.932Z,23.23
2019-05-20T22:51:07.076Z,24.30
2019-05-20T22:53:33.146Z,21.93
2019-05-20T22:55:59.385Z,23.50
2019-05-20T22:58:25.442Z,23.57
2019-05-20T23:00:51.465Z,23.43
2019-05-20T23:03:17.648Z,25.90
2019-05-20T23:05:43.694Z,25.37
2019-05-20T23:08:09.733Z,27.00
2019-05-20T23:10:35.812Z,26.57
2019-05-20T23:13:01.939Z,26.80
2019-05-20T23:15:28.548Z,27.90
2019-05-20T23:17:54.564Z,29.93
2019-05-20T23:20:21.084Z,28.00
2019-05-20T23:22:47.394Z,28.73
2019-05-20T23:25:13.579Z,27.70
2019-05-20T23:27:39.556Z,28.00
2019-05-20T23:30:06.662Z,31.60
2019-05-20T23:32:32.678Z,30.70
2019-05-20T23:34:58.696Z,27.90
2019-05-20T23:37:24.705Z,30.87
2019-05-20T23:39:50.749Z,29.63
2019-05-20T23:42:16.732Z,30.03
2019-05-20T23:44:42.808Z,30.87
2019-05-20T23:47:08.786Z,29.73
2019-05-20T23:49:34.842Z,28.97
2019-05-20T23:52:00.904Z,28.17
2019-05-20T23:54:27.141Z,29.23
2019-05-20T23:56:53.180Z,29.93
2019-05-20T23:59:19.144Z,28.60
